Time;durP1;ratioP1;P1;durP2;ratioP2;P2;SDS_P1;SDS_P2;PMS_P1;PMS_P2;Temp;Humidity;BMP_temperature;BMP_pressure;BME280_temperature;BME280_humidity;BME280_pressure;Samples;Min_cycle;Max_cycle;Signal;HPM_P1;HPM_P2
2024/02/19 00:00:56;;;;;;;5.20;2.00;;;;;;;-0.78;64.23;100761.73;107244;1257;73795;-39
2024/02/19 00:03:23;;;;;;;3.60;2.00;;;;;;;-0.82;64.19;100763.44;107290;1256;67116;-39
2024/02/19 00:05:52;;;;;;;6.10;2.10;;;;;;;-0.87;63.86;100757.95;107214;1257;72678;-39
2024/02/19 00:08:19;;;;;;;4.40;2.30;;;;;;;-0.91;64.11;100755.67;107114;1260;60444;-39
2024/02/19 00:10:47;;;;;;;6.90;2.30;;;;;;;-0.93;64.35;100757.48;107060;1260;60332;-39
2024/02/19 00:13:15;;;;;;;3.10;2.10;;;;;;;-0.93;64.55;100758.75;107054;1258;73861;-39
2024/02/19 00:15:43;;;;;;;4.90;2.50;;;;;;;-0.95;64.21;100756.91;107150;1260;68376;-39
2024/02/19 00:18:11;;;;;;;4.20;2.60;;;;;;;-0.98;64.16;100761.09;106328;1258;1015671;-39
2024/02/19 00:20:39;;;;;;;4.20;2.30;;;;;;;-0.98;64.34;100762.10;107052;1257;60394;-39
2024/02/19 00:23:06;;;;;;;5.90;2.30;;;;;;;-0.98;64.62;100757.52;107069;1257;60296;-39
2024/02/19 00:25:35;;;;;;;4.40;2.00;;;;;;;-0.99;64.61;100752.83;107036;1258;73905;-39
2024/02/19 00:28:03;;;;;;;4.50;2.30;;;;;;;-0.94;64.71;100752.55;107031;1260;67085;-39
2024/02/19 00:30:31;;;;;;;4.10;2.30;;;;;;;-0.88;64.54;100759.11;107053;1259;72652;-39
2024/02/19 00:32:58;;;;;;;4.30;2.30;;;;;;;-0.84;64.55;100760.06;107044;1259;60517;-39
2024/02/19 00:35:26;;;;;;;4.90;3.10;;;;;;;-0.83;64.97;100758.16;107093;1258;60573;-39
2024/02/19 00:37:54;;;;;;;6.70;4.30;;;;;;;-0.81;64.80;100755.41;107076;1257;73825;-39
2024/02/19 00:40:21;;;;;;;10.10;5.90;;;;;;;-0.80;64.70;100760.42;107035;1259;68930;-39
2024/02/19 00:42:49;;;;;;;9.90;5.30;;;;;;;-0.81;65.03;100757.96;107095;1258;72637;-39
2024/02/19 00:45:17;;;;;;;8.20;4.40;;;;;;;-0.84;65.11;100757.71;107073;1257;60312;-40
2024/02/19 00:47:44;;;;;;;7.50;4.10;;;;;;;-0.87;65.00;100759.65;107089;1257;60088;-39
2024/02/19 00:50:12;;;;;;;6.70;3.90;;;;;;;-0.88;65.05;100756.56;107087;1257;73821;-39
2024/02/19 00:52:40;;;;;;;9.70;3.40;;;;;;;-0.92;65.23;100755.66;107090;1257;67146;-39
2024/02/19 00:55:08;;;;;;;6.90;3.30;;;;;;;-0.93;65.41;100752.09;106324;1257;1002916;-39
2024/02/19 00:57:37;;;;;;;6.00;3.20;;;;;;;-0.96;65.38;100750.19;107103;1262;60502;-40
2024/02/19 01:00:05;;;;;;;4.40;2.40;;;;;;;-1.00;65.41;100749.50;107094;1262;60344;-39
2024/02/19 01:02:34;;;;;;;5.40;2.90;;;;;;;-1.04;65.45;100752.92;107260;1257;73859;-39
2024/02/19 01:05:02;;;;;;;4.50;2.50;;;;;;;-1.09;65.38;100754.66;107183;1257;68217;-40
2024/02/19 01:07:30;;;;;;;7.40;3.50;;;;;;;-1.13;65.30;100752.60;107175;1260;72132;-40
2024/02/19 01:09:58;;;;;;;7.80;4.00;;;;;;;-1.14;65.40;100759.08;107221;1263;60652;-40
2024/02/19 01:12:26;;;;;;;7.70;4.60;;;;;;;-1.17;65.46;100761.45;107278;1258;60401;-39
2024/02/19 01:14:53;;;;;;;8.80;4.50;;;;;;;-1.18;65.26;100762.80;107271;1257;73940;-39
2024/02/19 01:17:21;;;;;;;7.30;3.70;;;;;;;-1.21;65.37;100761.23;107295;1256;67578;-40
2024/02/19 01:19:48;;;;;;;7.60;4.00;;;;;;;-1.15;65.30;100764.23;107245;1257;72651;-40
2024/02/19 01:22:16;;;;;;;10.10;4.20;;;;;;;-1.06;65.10;100763.71;107238;1257;60546;-39
2024/02/19 01:24:45;;;;;;;7.90;4.50;;;;;;;-1.03;64.99;100769.21;107192;1258;131547;-40
2024/02/19 01:28:02;;;;;;;8.10;4.50;;;;;;;-1.00;64.91;100765.69;104166;1291;600309;-39
2024/02/19 01:30:31;;;;;;;7.80;4.50;;;;;;;-1.02;64.83;100761.63;106644;1267;59191;-39
2024/02/19 01:33:01;;;;;;;7.00;4.00;;;;;;;-1.03;64.89;100758.73;106678;1266;60033;-39
2024/02/19 01:35:29;;;;;;;7.90;4.20;;;;;;;-1.05;64.70;100757.91;106730;1267;71067;-39
2024/02/19 01:37:57;;;;;;;11.40;4.50;;;;;;;-1.08;65.08;100756.66;106680;1267;68432;-39
2024/02/19 01:40:24;;;;;;;9.40;5.20;;;;;;;-1.09;64.66;100756.52;106669;1267;72701;-39
2024/02/19 01:43:05;;;;;;;9.90;5.20;;;;;;;-1.10;64.83;100750.23;106630;1264;172573;-39
2024/02/19 01:45:33;;;;;;;10.40;4.80;;;;;;;-1.10;64.73;100747.61;106745;1264;59147;-38
2024/02/19 01:48:01;;;;;;;11.00;5.50;;;;;;;-1.12;64.56;100745.11;106789;1264;72267;-39
2024/02/19 01:50:32;;;;;;;11.30;5.90;;;;;;;-1.15;64.61;100746.98;106720;1263;67334;-39
2024/02/19 01:53:01;;;;;;;8.50;4.80;;;;;;;-1.19;64.81;100746.82;106661;1267;72709;-38
2024/02/19 01:55:29;;;;;;;7.90;4.70;;;;;;;-1.24;65.00;100743.67;106676;1267;59697;-38
2024/02/19 01:57:57;;;;;;;9.50;4.80;;;;;;;-1.32;65.08;100740.77;107065;1257;59231;-39
2024/02/19 02:00:24;;;;;;;9.50;5.10;;;;;;;-1.37;65.32;100735.92;107080;1257;73316;-38
2024/02/19 02:02:52;;;;;;;10.00;5.60;;;;;;;-1.41;65.45;100734.92;107156;1257;68365;-38
2024/02/19 02:05:20;;;;;;;9.70;4.90;;;;;;;-1.45;65.77;100734.21;107045;1257;72681;-39
2024/02/19 02:07:47;;;;;;;6.50;3.90;;;;;;;-1.40;66.03;100736.00;107222;1261;59887;-38
2024/02/19 02:10:15;;;;;;;11.70;5.00;;;;;;;-1.28;66.03;100736.40;107129;1257;60183;-39
2024/02/19 02:12:43;;;;;;;10.00;5.20;;;;;;;-1.25;65.78;100729.04;107062;1256;73026;-39
2024/02/19 02:15:10;;;;;;;13.50;5.90;;;;;;;-1.22;65.84;100728.23;107142;1257;68656;-38
2024/02/19 02:17:40;;;;;;;13.60;6.50;;;;;;;-1.20;65.71;100727.39;106461;1257;1002530;-39
2024/02/19 02:20:08;;;;;;;;;;;;;;;-1.17;65.59;100727.44;107233;1257;59464;-39
2024/02/19 02:22:36;;;;;;;10.10;5.30;;;;;;;-1.22;65.48;100723.55;107199;1257;59834;-39
2024/02/19 02:25:05;;;;;;;11.00;6.00;;;;;;;-1.19;65.36;100728.58;107219;1262;73089;-38
2024/02/19 02:27:32;;;;;;;13.30;7.10;;;;;;;-1.22;65.44;100722.01;107252;1257;67653;-38
2024/02/19 02:30:02;;;;;;;14.10;6.80;;;;;;;-1.25;65.37;100720.41;107191;1257;71408;-38
2024/02/19 02:32:30;;;;;;;10.50;6.20;;;;;;;-1.28;65.40;100716.55;107250;1257;59765;-38
2024/02/19 02:34:57;;;;;;;11.00;6.10;;;;;;;-1.34;65.58;100719.05;107202;1261;59681;-38
2024/02/19 02:37:26;;;;;;;7.70;5.20;;;;;;;-1.36;65.63;100719.70;107218;1256;73083;-38
2024/02/19 02:39:53;;;;;;;10.90;6.30;;;;;;;-1.40;66.05;100715.29;107200;1257;67182;-40
2024/02/19 02:42:21;;;;;;;10.90;6.20;;;;;;;-1.41;65.82;100713.80;107223;1261;72714;-39
2024/02/19 02:44:49;;;;;;;11.90;5.90;;;;;;;-1.44;66.06;100712.27;107231;1257;60008;-39
2024/02/19 02:47:16;;;;;;;9.40;4.90;;;;;;;-1.48;66.11;100717.58;106461;1256;1003396;-39
2024/02/19 02:49:44;;;;;;;10.50;5.30;;;;;;;-1.52;66.12;100715.77;107193;1256;72098;-38
2024/02/19 02:52:11;;;;;;;7.40;4.50;;;;;;;-1.55;66.25;100714.92;107226;1257;68390;-39
2024/02/19 02:54:39;;;;;;;7.90;3.80;;;;;;;-1.57;66.50;100715.71;106457;1257;1003757;-39
2024/02/19 02:57:07;;;;;;;9.00;4.10;;;;;;;-1.52;66.32;100710.23;107181;1257;59435;-39
2024/02/19 02:59:34;;;;;;;6.30;3.70;;;;;;;-1.44;66.40;100715.09;107199;1257;60335;-39
2024/02/19 03:02:02;;;;;;;6.80;3.70;;;;;;;-1.40;66.35;100706.56;107063;1257;73164;-40
2024/02/19 03:04:31;;;;;;;6.00;3.70;;;;;;;-1.39;66.31;100711.27;107091;1257;67080;-40
2024/02/19 03:07:00;;;;;;;7.10;3.80;;;;;;;-1.36;66.29;100718.16;107100;1257;72731;-40
2024/02/19 03:09:28;;;;;;;7.10;3.80;;;;;;;-1.35;66.01;100713.65;106340;1256;1003710;-40
2024/02/19 03:11:55;;;;;;;7.90;4.00;;;;;;;-1.35;66.12;100714.45;107196;1256;60053;-40
2024/02/19 03:14:23;;;;;;;9.60;3.50;;;;;;;-1.36;65.78;100717.27;107136;1258;72997;-40
2024/02/19 03:16:51;;;;;;;6.30;3.50;;;;;;;-1.39;65.95;100716.01;107068;1257;67115;-40
